TAFOR
Diposting tanggal: 10 Juni 2019

Pukul : 06 - 18 UTC

Isi :

TAF WAGI 040500Z 0406/0418 10005KT 9999 BKN018 TEMPO 0407/0410 4000 -RA FEW012CB BKN012=